Back to top

Laramie, WY weather

Laramie Regional Airport, Laramie, WY: 1/20/2020 04:53
Visibility10 statute milesclear sky
View 7-Day Forecast
Area Summary
Sky/CloudsSky Clear
Weather [last 24 hours]None
Pressure30.36 in.Hg (1028 hPa)
3-hour Pressure Tendency0.02067 in.Hg (0.7 hPa) Decreasing, then increasing
Dew Point3 °F (-16.1 °C)
Relative Humidity66.4 %
Temperature12 °F (-11.1 °C)blue thermometer
Wind Chill0.444 °F (-17.5 °C)
Reading TimeMinimum to Maximum Temperature
6-hr ending 1/20@04:535 °F to 12 °F (-15 °C to -11.1 °C)
6-hr ending 1/19@22:539 °F to 19.9 °F (-12.8 °C to -6.7 °C)
6-hr ending 1/19@16:5319.9 °F to 34 °F (-6.7 °C to 1.1 °C)
6-hr ending 1/19@10:5310 °F to 33.1 °F (-12.2 °C to 0.6 °C)
24-hr ending 1/19@23:539 °F to 34 °F (-12.8 °C to 1.1 °C)
Wind8.06 MPH (7 KT) green arrow pointing 157.5 degrees
Wind FromSouth/Southeast (160 Degrees)
Twilight Begins06:52Sunshine Yesterday
Sunrise07:22N/A
Sunset17:06
Twilight Ends17:36
METARKLAR 201153Z AUTO 16007KT 10SM CLR M11/M16 A3036 RMK AO2 SLP342 T11111161 11111 21150 55007
Tags: